Sagunto, Spain
Current Conditions -  °F | °C
As of 10:00 AM on Wednesday 22 Oct 2014 (Local Time) from LEBT Reporting Station
Clear Clear  
Wind Chill: 73°   Ceiling: Unl
Heat Index: 73°   Visibility: 6mi
Dew Point: 37°   Wind: 8mph
Humidity: 27%   Direction: 310°NW
Pressure: 30.21"   Gusts: NA
Location:  39.68°N, 0.27°W
Report Text: LEBT 220800Z AUTO 31007KT 230V030 CAVOK 23/03 Q1023
Loading
Personal Weather Stations






























Interactive Weather Map
Tropical Storm Tracking
New forecast layout! Learn more

10-Day Weather Forecast

Advertisements
Track Severe Weather on mobile